createdAt,value
2018-05-25T00:00:55.483Z,63.80
2018-05-25T00:03:23.733Z,63.20
2018-05-25T00:05:52.125Z,63.60
2018-05-25T00:08:20.354Z,64.90
2018-05-25T00:10:48.607Z,64.10
2018-05-25T00:13:16.871Z,64.20
2018-05-25T00:15:45.458Z,64.10
2018-05-25T00:18:13.703Z,64.10
2018-05-25T00:20:42.708Z,64.00
2018-05-25T00:23:10.992Z,64.00
2018-05-25T00:25:39.239Z,63.80
2018-05-25T00:28:08.264Z,63.70
2018-05-25T00:30:36.519Z,63.60
2018-05-25T00:33:05.540Z,64.30
2018-05-25T00:35:33.798Z,64.30
2018-05-25T00:38:02.050Z,64.30
2018-05-25T00:40:31.072Z,64.30
2018-05-25T00:42:59.334Z,64.20
2018-05-25T00:45:27.578Z,64.10
2018-05-25T00:47:55.832Z,63.70
2018-05-25T00:50:24.085Z,63.90
2018-05-25T00:52:52.323Z,63.50
2018-05-25T00:55:33.028Z,63.10
2018-05-25T00:58:01.268Z,63.10
2018-05-25T01:00:30.318Z,62.80
2018-05-25T01:02:58.577Z,62.70
2018-05-25T01:05:27.087Z,62.60
2018-05-25T01:07:55.332Z,62.30
2018-05-25T01:10:23.585Z,62.50
2018-05-25T01:12:51.835Z,62.90
2018-05-25T01:15:20.850Z,62.70
2018-05-25T01:17:49.094Z,62.60
2018-05-25T01:20:18.257Z,62.70
2018-05-25T01:22:46.498Z,62.70
2018-05-25T01:25:14.748Z,63.10
2018-05-25T01:27:43.772Z,62.60
2018-05-25T01:30:12.023Z,62.60
2018-05-25T01:32:41.344Z,62.60
2018-05-25T01:35:09.605Z,62.50
2018-05-25T01:37:37.854Z,63.00
2018-05-25T01:40:06.882Z,63.40
2018-05-25T01:42:35.134Z,63.30
2018-05-25T01:45:04.165Z,62.60
2018-05-25T01:47:32.419Z,62.50
2018-05-25T01:50:00.652Z,62.40
2018-05-25T01:52:28.900Z,63.20
2018-05-25T01:54:57.146Z,63.00
2018-05-25T01:57:25.392Z,63.80
2018-05-25T01:59:54.430Z,63.70
2018-05-25T02:02:22.682Z,63.60
2018-05-25T02:04:50.942Z,63.50
2018-05-25T02:07:19.955Z,63.60
2018-05-25T02:09:48.208Z,63.60
2018-05-25T02:12:17.231Z,63.10
2018-05-25T02:14:45.479Z,63.10
2018-05-25T02:17:14.636Z,63.30
2018-05-25T02:19:42.873Z,63.30
2018-05-25T02:22:11.107Z,62.30
2018-05-25T02:24:39.383Z,62.30
2018-05-25T02:27:07.630Z,62.30
2018-05-25T02:29:35.880Z,62.30
2018-05-25T02:32:04.133Z,62.50
2018-05-25T02:34:32.386Z,62.60
2018-05-25T02:37:01.411Z,62.20
2018-05-25T02:39:29.655Z,62.10
2018-05-25T02:41:58.698Z,62.60
2018-05-25T02:44:26.934Z,62.50
2018-05-25T02:46:55.928Z,62.50
2018-05-25T02:49:24.197Z,61.90
2018-05-25T02:51:53.200Z,62.00
2018-05-25T02:54:21.462Z,62.00
2018-05-25T02:56:50.465Z,61.80
2018-05-25T02:59:18.728Z,61.70
2018-05-25T03:01:47.724Z,61.60
2018-05-25T03:04:16.744Z,61.70
2018-05-25T03:06:45.138Z,61.60
2018-05-25T03:09:13.386Z,61.60
2018-05-25T03:11:41.628Z,61.40
2018-05-25T03:14:09.887Z,61.20
2018-05-25T03:16:38.132Z,61.30
2018-05-25T03:19:06.373Z,60.90
2018-05-25T03:21:34.632Z,61.00
2018-05-25T03:24:02.867Z,61.50
2018-05-25T03:26:31.890Z,62.80
2018-05-25T03:29:00.143Z,62.60
2018-05-25T03:31:28.386Z,63.30
2018-05-25T03:33:56.658Z,63.40
2018-05-25T03:36:24.903Z,62.80
2018-05-25T03:38:54.080Z,63.30
2018-05-25T03:41:22.327Z,63.30
2018-05-25T03:43:50.555Z,63.20
2018-05-25T03:46:19.771Z,62.30
2018-05-25T03:48:48.022Z,62.30
2018-05-25T03:51:17.108Z,62.40
2018-05-25T03:53:45.353Z,62.30
2018-05-25T03:56:13.606Z,62.90
2018-05-25T03:58:53.675Z,62.30
2018-05-25T04:01:33.879Z,62.40
2018-05-25T04:04:02.067Z,62.00
2018-05-25T04:06:30.339Z,61.50
2018-05-25T04:08:58.603Z,62.00
2018-05-25T04:11:26.839Z,62.10
2018-05-25T04:13:55.109Z,62.20
2018-05-25T04:16:23.355Z,62.30
2018-05-25T04:18:51.614Z,62.60
2018-05-25T04:21:19.874Z,62.60
2018-05-25T04:23:48.887Z,63.30
2018-05-25T04:26:17.162Z,63.30
2018-05-25T04:28:45.404Z,62.90
2018-05-25T04:31:14.597Z,63.40
2018-05-25T04:33:42.818Z,63.40
2018-05-25T04:36:11.063Z,63.30
2018-05-25T04:38:40.078Z,63.40
2018-05-25T04:41:08.330Z,63.40
2018-05-25T04:43:37.342Z,63.70
2018-05-25T04:46:05.597Z,63.70
2018-05-25T04:48:34.607Z,64.40
2018-05-25T04:51:03.167Z,64.30
2018-05-25T04:53:32.177Z,64.60
2018-05-25T04:56:00.425Z,64.50
2018-05-25T04:58:29.451Z,64.80
2018-05-25T05:00:58.032Z,64.70
2018-05-25T05:03:26.276Z,65.10
2018-05-25T05:05:54.515Z,65.50
2018-05-25T05:08:23.026Z,65.90
2018-05-25T05:10:51.268Z,66.20
2018-05-25T05:13:19.519Z,67.20
2018-05-25T05:15:47.783Z,67.30
2018-05-25T05:18:16.035Z,66.40
2018-05-25T05:20:45.116Z,67.60
2018-05-25T05:23:13.352Z,67.60
2018-05-25T05:25:41.757Z,68.20
2018-05-25T05:28:10.023Z,68.40
2018-05-25T05:30:38.278Z,68.20
2018-05-25T05:33:06.552Z,68.50
2018-05-25T05:35:34.811Z,68.40
2018-05-25T05:38:03.096Z,68.90
2018-05-25T05:40:31.351Z,68.30
2018-05-25T05:42:59.631Z,67.70
2018-05-25T05:45:27.909Z,66.70
2018-05-25T05:47:56.156Z,67.00
2018-05-25T05:50:25.191Z,66.40
2018-05-25T05:52:53.437Z,66.50
2018-05-25T05:55:21.845Z,66.90
2018-05-25T05:57:50.102Z,67.00
2018-05-25T06:00:18.371Z,67.00
2018-05-25T06:02:46.636Z,67.00
2018-05-25T06:05:15.656Z,66.80
2018-05-25T06:07:43.936Z,66.80
2018-05-25T06:10:12.186Z,67.00
2018-05-25T06:12:40.443Z,65.80
2018-05-25T06:15:09.473Z,66.60
2018-05-25T06:17:37.745Z,66.50
2018-05-25T06:20:06.828Z,65.50
2018-05-25T06:22:34.984Z,66.50
2018-05-25T06:25:04.339Z,66.40
2018-05-25T06:27:32.585Z,65.80
2018-05-25T06:30:00.834Z,65.30
2018-05-25T06:32:29.863Z,66.50
2018-05-25T06:34:58.123Z,66.50
2018-05-25T06:37:26.367Z,65.40
2018-05-25T06:39:55.406Z,65.60
2018-05-25T06:42:23.667Z,65.60
2018-05-25T06:44:51.932Z,65.30
2018-05-25T06:47:20.523Z,65.80
2018-05-25T06:49:48.789Z,64.80
2018-05-25T06:52:17.047Z,64.40
2018-05-25T06:54:46.080Z,63.30
2018-05-25T06:57:14.339Z,63.30
2018-05-25T06:59:42.611Z,63.60
2018-05-25T07:02:10.859Z,62.40
2018-05-25T07:04:39.893Z,62.10
2018-05-25T07:07:08.151Z,62.00
2018-05-25T07:09:36.422Z,62.10
2018-05-25T07:12:04.683Z,61.80
2018-05-25T07:14:33.711Z,61.60
2018-05-25T07:17:02.426Z,60.90
2018-05-25T07:19:30.640Z,61.40
2018-05-25T07:21:58.887Z,61.30
2018-05-25T07:24:27.160Z,60.30
2018-05-25T07:26:55.520Z,59.90
2018-05-25T07:29:24.446Z,59.50
2018-05-25T07:31:53.470Z,59.60
2018-05-25T07:34:21.759Z,59.60
2018-05-25T07:36:50.027Z,59.90
2018-05-25T07:39:18.325Z,60.00
2018-05-25T07:41:46.563Z,59.70
2018-05-25T07:44:14.833Z,58.80
2018-05-25T07:46:43.101Z,58.80
2018-05-25T07:49:12.111Z,60.10
2018-05-25T07:51:40.377Z,60.10
2018-05-25T07:54:08.650Z,59.70
2018-05-25T07:56:36.914Z,60.00
2018-05-25T07:59:05.932Z,59.00
2018-05-25T08:01:34.204Z,58.90
2018-05-25T08:04:02.448Z,59.00
2018-05-25T08:06:31.477Z,57.90
2018-05-25T08:08:59.755Z,57.90
2018-05-25T08:11:28.006Z,57.20
2018-05-25T08:13:56.284Z,58.70
2018-05-25T08:16:24.546Z,57.70
2018-05-25T08:18:54.887Z,57.10
2018-05-25T08:21:23.156Z,58.00
2018-05-25T08:23:51.408Z,58.50
2018-05-25T08:26:20.435Z,58.70
2018-05-25T08:28:48.702Z,58.70
2018-05-25T08:31:16.965Z,56.80
2018-05-25T08:33:45.983Z,57.90
2018-05-25T08:36:14.399Z,57.80
2018-05-25T08:38:42.654Z,58.20
2018-05-25T08:41:10.912Z,56.30
2018-05-25T08:43:39.170Z,55.90
2018-05-25T08:46:07.432Z,55.30
2018-05-25T08:48:36.772Z,58.50
2018-05-25T08:51:05.027Z,58.50
2018-05-25T08:53:33.281Z,56.00
2018-05-25T08:56:02.320Z,55.10
2018-05-25T08:58:31.491Z,55.60
2018-05-25T09:00:59.635Z,55.60
2018-05-25T09:03:28.656Z,55.50
2018-05-25T09:05:56.937Z,55.50
2018-05-25T09:08:25.195Z,55.30
2018-05-25T09:10:53.727Z,54.40
2018-05-25T09:13:22.002Z,53.90
2018-05-25T09:15:50.260Z,54.80
2018-05-25T09:18:18.518Z,55.20
2018-05-25T09:20:46.794Z,52.80
2018-05-25T09:23:15.067Z,53.80
2018-05-25T09:25:43.334Z,54.80
2018-05-25T09:28:11.934Z,54.40
2018-05-25T09:30:40.200Z,52.50
2018-05-25T09:33:08.453Z,52.90
2018-05-25T09:35:37.492Z,55.00
2018-05-25T09:38:05.747Z,55.10
2018-05-25T09:40:34.016Z,54.20
2018-05-25T09:43:02.278Z,54.00
2018-05-25T09:45:31.287Z,53.10
2018-05-25T09:47:59.565Z,53.10
2018-05-25T09:50:28.447Z,54.20
2018-05-25T09:52:56.708Z,52.60
2018-05-25T09:55:25.715Z,53.20
2018-05-25T09:57:57.657Z,53.20
2018-05-25T10:00:26.675Z,52.60
2018-05-25T10:02:54.938Z,52.60
2018-05-25T10:05:23.191Z,51.30
2018-05-25T10:07:52.215Z,51.80
2018-05-25T10:10:20.498Z,51.70
2018-05-25T10:12:48.761Z,50.80
2018-05-25T10:15:17.023Z,51.30
2018-05-25T10:17:45.266Z,51.90
2018-05-25T10:20:13.534Z,52.50
2018-05-25T10:22:41.781Z,50.60
2018-05-25T10:25:10.025Z,49.30
2018-05-25T10:27:38.302Z,49.70
2018-05-25T10:30:06.549Z,48.80
2018-05-25T10:32:35.561Z,50.40
2018-05-25T10:35:04.591Z,48.40
2018-05-25T10:37:32.840Z,48.50
2018-05-25T10:40:01.105Z,48.90
2018-05-25T10:42:30.114Z,49.00
2018-05-25T10:44:58.370Z,49.00
2018-05-25T10:47:27.411Z,49.10
2018-05-25T10:49:55.660Z,49.00
2018-05-25T10:52:23.911Z,48.20
2018-05-25T10:54:52.932Z,48.60
2018-05-25T10:57:21.187Z,48.60
2018-05-25T10:59:49.455Z,47.60
2018-05-25T11:02:18.478Z,49.10
2018-05-25T11:04:46.743Z,49.10
2018-05-25T11:07:15.021Z,44.70
2018-05-25T11:09:43.275Z,44.90
2018-05-25T11:12:11.528Z,46.20
2018-05-25T11:14:39.787Z,46.60
2018-05-25T11:17:08.033Z,46.70
2018-05-25T11:19:36.360Z,45.50
2018-05-25T11:22:05.354Z,41.60
2018-05-25T11:24:34.388Z,40.80
2018-05-25T11:27:02.664Z,39.90
2018-05-25T11:29:30.915Z,40.30
2018-05-25T11:31:59.160Z,41.00
2018-05-25T11:34:27.440Z,41.70
2018-05-25T11:36:56.467Z,40.30
2018-05-25T11:39:24.711Z,39.90
2018-05-25T11:41:53.784Z,41.60
2018-05-25T11:44:22.032Z,41.60
2018-05-25T11:46:50.296Z,42.20
2018-05-25T11:49:18.549Z,39.70
2018-05-25T11:51:47.576Z,41.70
2018-05-25T11:54:15.811Z,41.40
2018-05-25T11:56:44.862Z,41.70
2018-05-25T11:59:13.142Z,41.70
2018-05-25T12:01:41.399Z,40.00
2018-05-25T12:04:09.667Z,40.30
2018-05-25T12:06:37.943Z,42.10
2018-05-25T12:09:06.192Z,40.00
2018-05-25T12:11:34.423Z,40.30
2018-05-25T12:14:02.698Z,39.60
2018-05-25T12:16:31.000Z,40.60
2018-05-25T12:19:00.021Z,39.80
2018-05-25T12:21:28.284Z,39.70
2018-05-25T12:23:56.527Z,37.30
2018-05-25T12:26:24.806Z,39.40
2018-05-25T12:28:53.119Z,40.50
2018-05-25T12:31:21.370Z,40.80
2018-05-25T12:33:50.395Z,39.90
2018-05-25T12:36:18.665Z,39.90
2018-05-25T12:38:46.901Z,39.80
2018-05-25T12:41:15.939Z,40.00
2018-05-25T12:43:44.208Z,40.00
2018-05-25T12:46:12.493Z,38.20
2018-05-25T12:48:40.719Z,40.30
2018-05-25T12:51:09.761Z,39.20
2018-05-25T12:53:38.016Z,39.20
2018-05-25T12:56:06.275Z,39.20
2018-05-25T12:58:34.558Z,37.30
2018-05-25T13:01:02.815Z,36.30
2018-05-25T13:03:31.835Z,38.10
2018-05-25T13:06:00.079Z,38.00
2018-05-25T13:08:29.111Z,35.40
2018-05-25T13:10:57.379Z,35.20
2018-05-25T13:13:25.665Z,37.70
2018-05-25T13:15:53.944Z,35.70
2018-05-25T13:18:22.213Z,37.10
2018-05-25T13:20:50.498Z,37.40
2018-05-25T13:23:18.756Z,35.70
2018-05-25T13:25:47.007Z,35.80
2018-05-25T13:28:16.056Z,33.60
2018-05-25T13:30:44.318Z,33.60
2018-05-25T13:33:12.575Z,34.40
2018-05-25T13:35:40.820Z,36.00
2018-05-25T13:38:09.908Z,38.80
2018-05-25T13:40:38.163Z,38.80
2018-05-25T13:43:06.437Z,40.40
2018-05-25T13:45:34.688Z,38.30
2018-05-25T13:48:02.971Z,40.10
2018-05-25T13:50:31.221Z,37.10
2018-05-25T13:52:59.504Z,38.00
2018-05-25T13:55:27.750Z,38.00
2018-05-25T13:57:56.017Z,35.40
2018-05-25T14:00:25.051Z,36.50
2018-05-25T14:02:53.327Z,36.40
2018-05-25T14:05:21.578Z,37.10
2018-05-25T14:07:49.831Z,37.10
2018-05-25T14:10:18.860Z,35.50
2018-05-25T14:12:47.176Z,35.40
2018-05-25T14:15:15.440Z,33.10
2018-05-25T14:17:43.694Z,35.30
2018-05-25T14:20:11.940Z,37.10
2018-05-25T14:22:40.785Z,37.90
2018-05-25T14:25:09.026Z,38.80
2018-05-25T14:27:37.285Z,38.00
2018-05-25T14:30:05.552Z,37.80
2018-05-25T14:32:33.803Z,38.90
2018-05-25T14:35:02.854Z,36.70
2018-05-25T14:37:31.124Z,36.60
2018-05-25T14:39:59.374Z,36.80
2018-05-25T14:42:27.639Z,37.60
2018-05-25T14:44:56.654Z,39.30
2018-05-25T14:47:24.909Z,39.30
2018-05-25T14:49:53.152Z,38.70
2018-05-25T14:52:21.719Z,37.60
2018-05-25T14:54:49.974Z,38.20
2018-05-25T14:57:18.223Z,40.20
2018-05-25T14:59:46.506Z,38.00
2018-05-25T15:02:14.750Z,39.60
2018-05-25T15:04:43.780Z,37.90
2018-05-25T15:07:12.036Z,37.80
2018-05-25T15:09:40.513Z,40.50
2018-05-25T15:12:08.773Z,39.70
2018-05-25T15:14:37.782Z,38.90
2018-05-25T15:17:06.054Z,38.90
2018-05-25T15:19:34.319Z,39.20
2018-05-25T15:22:03.334Z,37.80
2018-05-25T15:24:31.587Z,37.60
2018-05-25T15:27:00.620Z,36.20
2018-05-25T15:29:28.927Z,36.20
2018-05-25T15:31:57.136Z,37.90
2018-05-25T15:34:26.459Z,36.30
2018-05-25T15:36:54.729Z,36.30
2018-05-25T15:39:22.988Z,38.00
2018-05-25T15:41:51.255Z,37.80
2018-05-25T15:44:20.276Z,36.60
2018-05-25T15:46:48.544Z,36.70
2018-05-25T15:49:16.804Z,38.00
2018-05-25T15:51:46.134Z,37.70
2018-05-25T15:54:14.383Z,37.60
2018-05-25T15:56:43.412Z,38.70
2018-05-25T15:59:11.959Z,38.60
2018-05-25T16:01:40.398Z,37.70
2018-05-25T16:04:08.643Z,37.60
2018-05-25T16:06:36.925Z,38.10
2018-05-25T16:09:05.178Z,38.70
2018-05-25T16:11:33.465Z,37.90
2018-05-25T16:14:01.709Z,37.70
2018-05-25T16:16:29.975Z,36.60
2018-05-25T16:18:58.987Z,37.90
2018-05-25T16:21:27.247Z,37.80
2018-05-25T16:23:56.273Z,38.30
2018-05-25T16:26:24.600Z,38.40
2018-05-25T16:28:53.126Z,37.50
2018-05-25T16:31:21.362Z,37.60
2018-05-25T16:33:50.369Z,37.60
2018-05-25T16:36:18.645Z,37.60
2018-05-25T16:38:47.666Z,35.80
2018-05-25T16:41:15.931Z,35.80
2018-05-25T16:43:44.185Z,37.50
2018-05-25T16:46:13.267Z,37.30
2018-05-25T16:48:41.481Z,37.50
2018-05-25T16:51:09.741Z,37.50
2018-05-25T16:53:38.003Z,37.40
2018-05-25T16:56:06.262Z,37.60
2018-05-25T16:58:35.275Z,36.30
2018-05-25T17:01:03.845Z,36.20
2018-05-25T17:03:32.106Z,36.20
2018-05-25T17:06:01.142Z,36.80
2018-05-25T17:08:29.695Z,36.80
2018-05-25T17:10:58.719Z,37.80
2018-05-25T17:13:26.974Z,37.70
2018-05-25T17:15:55.991Z,37.50
2018-05-25T17:18:24.279Z,37.40
2018-05-25T17:20:52.515Z,37.50
2018-05-25T17:23:20.773Z,37.40
2018-05-25T17:25:49.802Z,40.00
2018-05-25T17:28:18.059Z,40.00
2018-05-25T17:30:46.364Z,40.50
2018-05-25T17:33:15.347Z,39.60
2018-05-25T17:35:43.599Z,39.50
2018-05-25T17:38:11.865Z,40.20
2018-05-25T17:40:40.104Z,41.00
2018-05-25T17:43:08.344Z,41.60
2018-05-25T17:45:36.602Z,41.90
2018-05-25T17:48:04.869Z,43.00
2018-05-25T17:50:33.887Z,42.90
2018-05-25T17:53:02.135Z,42.90
2018-05-25T17:55:30.407Z,43.30
2018-05-25T17:57:59.429Z,42.30
2018-05-25T18:00:27.703Z,43.10
2018-05-25T18:02:55.959Z,43.20
2018-05-25T18:05:24.284Z,43.60
2018-05-25T18:07:52.560Z,44.10
2018-05-25T18:10:20.846Z,44.40
2018-05-25T18:12:49.064Z,45.60
2018-05-25T18:15:17.310Z,45.30
2018-05-25T18:17:45.574Z,44.80
2018-05-25T18:20:14.111Z,44.90
2018-05-25T18:22:42.375Z,44.80
2018-05-25T18:25:10.620Z,46.10
2018-05-25T18:27:38.895Z,45.90
2018-05-25T18:30:08.238Z,47.70
2018-05-25T18:32:36.560Z,47.70
2018-05-25T18:35:04.767Z,47.60
2018-05-25T18:37:33.808Z,46.70
2018-05-25T18:40:02.037Z,46.60
2018-05-25T18:42:30.288Z,47.70
2018-05-25T18:44:59.345Z,48.40
2018-05-25T18:47:27.577Z,48.30
2018-05-25T18:49:55.871Z,48.30
2018-05-25T18:52:24.190Z,48.40
2018-05-25T18:54:52.459Z,49.10
2018-05-25T18:57:20.736Z,50.20
2018-05-25T18:59:48.997Z,50.00
2018-05-25T19:02:17.268Z,50.80
2018-05-25T19:04:45.574Z,51.00
2018-05-25T19:07:13.998Z,50.50
2018-05-25T19:09:42.236Z,51.00
2018-05-25T19:12:11.297Z,52.30
2018-05-25T19:14:39.568Z,52.30
2018-05-25T19:17:07.921Z,52.50
2018-05-25T19:19:36.171Z,52.30
2018-05-25T19:22:04.442Z,52.20
2018-05-25T19:24:33.528Z,52.80
2018-05-25T19:27:01.805Z,52.80
2018-05-25T19:29:30.060Z,53.40
2018-05-25T19:31:58.332Z,54.00
2018-05-25T19:34:26.644Z,54.00
2018-05-25T19:36:54.908Z,53.70
2018-05-25T19:39:23.944Z,53.90
2018-05-25T19:41:52.205Z,53.80
2018-05-25T19:44:20.451Z,55.70
2018-05-25T19:46:49.500Z,57.90
2018-05-25T19:49:17.769Z,57.80
2018-05-25T19:51:46.009Z,57.30
2018-05-25T19:54:14.503Z,57.10
2018-05-25T19:56:42.788Z,56.80
2018-05-25T19:59:11.057Z,57.10
2018-05-25T20:01:39.311Z,57.30
2018-05-25T20:04:07.582Z,57.10
2018-05-25T20:06:36.599Z,57.00
2018-05-25T20:09:05.677Z,57.00
2018-05-25T20:11:33.928Z,57.10
2018-05-25T20:14:02.199Z,57.10
2018-05-25T20:16:30.458Z,57.30
2018-05-25T20:18:58.719Z,57.50
2018-05-25T20:21:27.258Z,57.60
2018-05-25T20:23:55.451Z,57.50
2018-05-25T20:26:23.714Z,57.30
2018-05-25T20:28:51.963Z,57.40
2018-05-25T20:31:20.979Z,57.50
2018-05-25T20:33:49.258Z,57.50
2018-05-25T20:36:17.556Z,57.40
2018-05-25T20:38:45.979Z,58.50
2018-05-25T20:41:14.987Z,58.40
2018-05-25T20:43:43.243Z,58.20
2018-05-25T20:46:12.278Z,59.00
2018-05-25T20:48:40.533Z,58.90
2018-05-25T20:51:08.823Z,58.80
2018-05-25T20:53:37.056Z,58.60
2018-05-25T20:56:05.313Z,58.50
2018-05-25T20:58:33.603Z,58.40
2018-05-25T21:01:01.862Z,58.70
2018-05-25T21:03:30.163Z,59.50
2018-05-25T21:05:58.422Z,59.70
2018-05-25T21:08:29.186Z,59.40
2018-05-25T21:10:57.416Z,59.00
2018-05-25T21:13:25.665Z,58.20
2018-05-25T21:15:53.939Z,57.90
2018-05-25T21:18:22.171Z,58.00
2018-05-25T21:20:51.227Z,58.30
2018-05-25T21:23:19.866Z,58.20
2018-05-25T21:25:48.084Z,58.70
2018-05-25T21:28:16.476Z,59.20
2018-05-25T21:30:44.719Z,58.70
2018-05-25T21:33:12.988Z,59.00
2018-05-25T21:35:41.246Z,58.10
2018-05-25T21:38:09.504Z,57.80
2018-05-25T21:40:38.670Z,58.80
2018-05-25T21:43:06.921Z,58.90
2018-05-25T21:45:35.170Z,59.20
2018-05-25T21:48:03.445Z,59.60
2018-05-25T21:50:31.709Z,59.60
2018-05-25T21:53:00.714Z,59.80
2018-05-25T21:55:28.975Z,59.80
2018-05-25T21:57:57.984Z,59.70
2018-05-25T22:00:30.083Z,59.70
2018-05-25T22:02:58.337Z,60.30
2018-05-25T22:05:26.586Z,60.80
2018-05-25T22:07:55.776Z,60.30
2018-05-25T22:10:24.008Z,60.30
2018-05-25T22:12:52.264Z,60.00
2018-05-25T22:15:20.523Z,59.80
2018-05-25T22:17:49.068Z,60.00
2018-05-25T22:20:17.331Z,59.80
2018-05-25T22:22:45.581Z,59.20
2018-05-25T22:25:13.843Z,59.30
2018-05-25T22:27:42.082Z,59.60
2018-05-25T22:30:11.133Z,59.00
2018-05-25T22:32:39.408Z,59.00
2018-05-25T22:35:07.650Z,58.90
2018-05-25T22:37:35.892Z,59.40
2018-05-25T22:40:04.902Z,59.10
2018-05-25T22:42:44.960Z,59.10
2018-05-25T22:45:25.381Z,59.20
2018-05-25T22:48:06.356Z,60.10
2018-05-25T22:50:46.386Z,59.40
2018-05-25T22:53:19.644Z,60.10
2018-05-25T22:55:47.894Z,59.80
2018-05-25T22:58:16.915Z,59.10
2018-05-25T23:00:45.165Z,59.10
2018-05-25T23:03:14.179Z,59.30
2018-05-25T23:05:42.447Z,59.20
2018-05-25T23:08:10.698Z,60.30
2018-05-25T23:10:39.720Z,61.10
2018-05-25T23:13:07.971Z,61.00
2018-05-25T23:15:36.991Z,60.40
2018-05-25T23:18:05.248Z,60.30
2018-05-25T23:20:33.504Z,60.40
2018-05-25T23:23:02.539Z,59.80
2018-05-25T23:25:30.790Z,59.80
2018-05-25T23:27:59.391Z,59.70
2018-05-25T23:30:27.647Z,59.90
2018-05-25T23:32:55.891Z,59.80
2018-05-25T23:35:24.187Z,60.20
2018-05-25T23:37:52.396Z,60.00
2018-05-25T23:40:20.654Z,60.40
2018-05-25T23:42:48.911Z,60.20
2018-05-25T23:45:17.943Z,61.70
2018-05-25T23:47:46.191Z,61.00
2018-05-25T23:50:14.439Z,60.60
2018-05-25T23:52:43.463Z,60.70
2018-05-25T23:55:11.705Z,60.70
2018-05-25T23:57:40.051Z,60.80
